Time;durP1;ratioP1;P1;durP2;ratioP2;P2;SDS_P1;SDS_P2;PMS_P1;PMS_P2;Temp;Humidity;BMP_temperature;BMP_pressure;BME280_temperature;BME280_humidity;BME280_pressure;Samples;Min_cycle;Max_cycle;Signal;HPM_P1;HPM_P2
2022/04/16 00:02:56;;;;;;;24.95;14.65;;;;;;;8.25;69.53;97564.09;10297424;28;20034;-61
2022/04/16 00:08:07;;;;;;;21.05;15.85;;;;;;;8.21;70.22;97572.69;10297738;28;20426;-60
2022/04/16 00:13:06;;;;;;;21.75;15.63;;;;;;;8.14;70.82;97569.19;10296610;28;20068;-60
2022/04/16 00:18:05;;;;;;;25.27;16.90;;;;;;;8.04;71.24;97563.13;10296699;28;20534;-60
2022/04/16 00:23:04;;;;;;;24.45;16.75;;;;;;;7.95;71.76;97554.44;10295372;28;20507;-60
2022/04/16 00:28:04;;;;;;;22.73;16.40;;;;;;;7.50;70.97;97489.59;10296401;28;20065;-60
2022/04/16 00:33:05;;;;;;;20.73;15.57;;;;;;;7.83;70.89;97550.06;10296172;28;20069;-61
2022/04/16 00:38:04;;;;;;;23.30;15.75;;;;;;;7.70;72.71;97558.59;10295887;28;20490;-61
2022/04/16 00:43:05;;;;;;;32.70;17.23;;;;;;;7.59;73.30;97555.91;10295695;28;20066;-60
2022/04/16 00:48:05;;;;;;;25.05;17.33;;;;;;;7.52;73.12;97555.03;10295698;28;20066;-60
2022/04/16 00:53:04;;;;;;;;;;;;;;;7.46;72.75;97567.88;10295444;28;20468;-60
2022/04/16 00:58:02;;;;;;;23.30;16.67;;;;;;;7.38;73.06;97556.56;10295131;28;20342;-60
2022/04/16 01:03:02;;;;;;;26.90;16.08;;;;;;;7.11;72.91;97527.09;10294826;28;20033;-60
2022/04/16 01:08:02;;;;;;;24.02;15.80;;;;;;;7.15;73.24;97552.09;10294563;28;20066;-60
2022/04/16 01:13:03;;;;;;;25.40;15.27;;;;;;;7.30;73.50;97573.72;10294738;28;20503;-60
2022/04/16 01:18:03;;;;;;;23.80;14.98;;;;;;;7.16;73.36;97560.69;10294909;28;20069;-60
2022/04/16 01:23:02;;;;;;;21.75;14.68;;;;;;;7.07;73.43;97556.28;10294158;28;20438;-60
2022/04/16 01:28:02;;;;;;;23.05;15.80;;;;;;;7.03;74.18;97557.13;10293988;28;20483;-60
2022/04/16 01:33:03;;;;;;;21.88;15.25;;;;;;;6.86;74.11;97538.88;10293695;28;20077;-60
2022/04/16 01:38:07;;;;;;;22.98;15.38;;;;;;;7.02;74.30;97560.56;10293783;28;20088;-60
2022/04/16 01:43:06;;;;;;;22.08;15.73;;;;;;;6.99;74.81;97568.28;10293604;28;20072;-60
2022/04/16 01:48:06;;;;;;;22.85;15.23;;;;;;;6.81;74.62;97533.69;10293845;28;20069;-60
2022/04/16 01:53:05;;;;;;;25.25;15.73;;;;;;;6.92;75.23;97559.59;10292896;28;20081;-60
2022/04/16 01:58:05;;;;;;;29.98;18.48;;;;;;;6.86;75.06;97579.28;10293215;28;20069;-60
2022/04/16 02:03:05;;;;;;;35.85;21.85;;;;;;;6.78;75.63;97574.94;10291777;28;20144;-60
2022/04/16 02:08:06;;;;;;;35.05;20.27;;;;;;;6.32;75.15;97491.03;10293520;28;20064;-60
2022/04/16 02:13:05;;;;;;;22.45;15.07;;;;;;;6.72;75.45;97577.41;10292821;28;20602;-60
2022/04/16 02:18:05;;;;;;;19.30;13.80;;;;;;;6.69;75.13;97576.53;10291798;28;20057;-60
2022/04/16 02:23:04;;;;;;;25.98;16.70;;;;;;;6.66;75.63;97576.50;10292096;28;20076;-60
2022/04/16 02:28:03;;;;;;;;;;;;;;;6.63;75.67;97569.56;10292208;28;20065;-60
2022/04/16 02:33:02;;;;;;;25.90;15.02;;;;;;;6.37;75.97;97553.81;10291456;28;20490;-60
2022/04/16 02:38:01;;;;;;;32.13;17.08;;;;;;;6.42;76.11;97564.16;10290290;28;20435;-60
2022/04/16 02:43:00;;;;;;;27.48;18.30;;;;;;;6.32;76.25;97548.59;10291055;28;20034;-60
2022/04/16 02:47:59;;;;;;;28.70;18.63;;;;;;;6.04;76.35;97502.72;10291315;28;20097;-61
2022/04/16 02:52:58;;;;;;;26.70;18.10;;;;;;;6.43;77.08;97589.13;10291424;28;20077;-60
2022/04/16 02:57:57;;;;;;;;;;;;;;;6.38;77.27;97579.59;10291137;28;20069;-60
2022/04/16 03:02:56;;;;;;;28.30;16.77;;;;;;;6.29;77.16;97578.63;10290544;28;19971;-60
2022/04/16 03:07:55;;;;;;;32.53;17.65;;;;;;;6.24;77.07;97580.28;10290583;28;20388;-60
2022/04/16 03:12:55;;;;;;;26.52;17.05;;;;;;;6.25;76.87;97592.31;10290781;28;20057;-60
2022/04/16 03:17:54;;;;;;;24.05;16.50;;;;;;;5.95;76.97;97557.53;10290397;28;20476;-60
2022/04/16 03:22:53;;;;;;;27.52;16.77;;;;;;;6.14;77.26;97600.78;10290427;28;20069;-60
2022/04/16 03:27:52;;;;;;;35.22;23.88;;;;;;;5.96;77.63;97583.34;10289283;28;20066;-60
2022/04/16 03:32:52;;;;;;;26.38;18.05;;;;;;;6.04;77.57;97616.06;10290267;28;20040;-60
2022/04/16 03:37:52;;;;;;;29.98;18.67;;;;;;;5.25;78.15;97499.06;10290048;28;20077;-60
2022/04/16 03:42:57;;;;;;;41.78;26.20;;;;;;;5.86;78.68;97612.38;10289976;28;20073;-60
2022/04/16 03:47:57;;;;;;;38.63;23.65;;;;;;;5.55;78.41;97573.28;10289641;28;20069;-60
2022/04/16 03:52:56;;;;;;;31.10;18.95;;;;;;;5.41;78.04;97543.88;10289686;28;20082;-62
2022/04/16 04:03:14;;;;;;;34.83;24.00;;;;;;;5.41;78.66;97641.66;10283841;28;20073;-63
2022/04/16 04:08:14;;;;;;;26.13;18.38;;;;;;;5.30;78.59;97641.50;10288466;28;20462;-63
2022/04/16 04:13:14;;;;;;;29.23;17.95;;;;;;;5.15;78.77;97614.63;10289582;28;20073;-62
2022/04/16 04:18:13;;;;;;;26.77;19.48;;;;;;;5.34;79.13;97650.09;10288544;28;20486;-63
2022/04/16 04:23:12;;;;;;;33.17;22.65;;;;;;;5.48;78.95;97658.06;10285774;28;20109;-63
2022/04/16 04:28:11;;;;;;;30.02;21.52;;;;;;;5.23;79.40;97611.34;10290125;28;20045;-63
2022/04/16 04:33:10;;;;;;;31.20;20.02;;;;;;;5.46;79.38;97639.16;10293187;28;20531;-63
2022/04/16 04:38:09;;;;;;;34.95;21.60;;;;;;;5.30;79.50;97595.19;10295314;28;20488;-63
2022/04/16 04:43:08;;;;;;;31.58;19.02;;;;;;;5.88;79.32;97669.03;10295896;28;20073;-63
2022/04/16 04:48:07;;;;;;;23.45;17.20;;;;;;;5.96;79.39;97658.03;10295840;28;20038;-63
2022/04/16 04:53:06;;;;;;;26.70;17.80;;;;;;;6.07;79.52;97676.25;10294910;28;20081;-63
2022/04/16 04:58:05;;;;;;;26.23;18.20;;;;;;;5.99;79.89;97680.38;10295605;28;20048;-63
2022/04/16 05:03:04;;;;;;;22.58;16.08;;;;;;;6.10;79.94;97671.13;10295099;28;20112;-63
2022/04/16 05:08:03;;;;;;;21.75;16.30;;;;;;;6.29;79.62;97667.09;10295378;28;20535;-63
2022/04/16 05:13:02;;;;;;;25.17;17.83;;;;;;;6.06;79.19;97594.63;10294395;28;20061;-63
2022/04/16 05:18:01;;;;;;;24.25;18.15;;;;;;;6.77;78.45;97666.06;10294586;28;20037;-63
2022/04/16 05:23:00;;;;;;;21.95;17.08;;;;;;;7.03;78.47;97642.28;10294244;28;20068;-63
2022/04/16 05:27:59;;;;;;;27.60;18.98;;;;;;;7.49;77.79;97647.94;10294306;28;20048;-63
2022/04/16 05:33:02;;;;;;;27.52;18.98;;;;;;;7.91;77.90;97640.53;10293769;28;20026;-63
2022/04/16 05:38:01;;;;;;;26.50;18.67;;;;;;;8.36;75.61;97645.16;10293679;28;20073;-63
2022/04/16 05:43:00;;;;;;;24.83;17.90;;;;;;;8.79;75.19;97647.97;10293686;28;20030;-63
2022/04/16 05:47:59;;;;;;;22.17;16.80;;;;;;;9.22;73.03;97650.69;10289946;28;20077;-64
2022/04/16 05:52:58;;;;;;;25.80;15.48;;;;;;;9.59;69.60;97640.44;10280977;28;20093;-63
2022/04/16 05:57:57;;;;;;;22.23;15.85;;;;;;;9.76;70.44;97601.56;10282625;28;20069;-63
2022/04/16 06:02:56;;;;;;;20.67;15.70;;;;;;;10.30;66.97;97633.50;10285574;28;20057;-61
2022/04/16 06:07:55;;;;;;;;;;;;;;;10.64;66.02;97653.31;10261872;28;20080;-61
2022/04/16 06:12:55;;;;;;;29.45;20.92;;;;;;;10.51;66.43;97596.25;10292640;28;19928;-61
2022/04/16 06:17:54;;;;;;;28.48;22.27;;;;;;;11.18;64.83;97654.00;10291357;28;20036;-62
2022/04/16 06:22:53;;;;;;;29.45;21.83;;;;;;;11.29;64.33;97623.66;10289508;28;20042;-61
2022/04/16 06:27:52;;;;;;;28.63;20.08;;;;;;;11.86;62.91;97665.69;10291301;28;20880;-61
2022/04/16 06:32:51;;;;;;;27.80;20.73;;;;;;;12.20;61.96;97664.53;10291310;28;20476;-62
2022/04/16 06:37:50;;;;;;;30.15;19.88;;;;;;;12.41;60.85;97637.47;10291218;28;20030;-61
2022/04/16 06:42:52;;;;;;;67.43;20.17;;;;;;;12.93;59.21;97657.75;10291969;28;20460;-62
2022/04/16 06:47:51;;;;;;;29.30;17.17;;;;;;;13.23;58.30;97655.63;10291128;28;20073;-62
2022/04/16 06:52:54;;;;;;;25.48;15.85;;;;;;;13.20;57.49;97624.41;10290315;28;20233;-62
2022/04/16 06:57:53;;;;;;;21.73;12.15;;;;;;;13.43;55.47;97653.63;10288547;28;20077;-61
2022/04/16 07:02:52;;;;;;;16.67;10.25;;;;;;;13.22;55.30;97635.69;10286991;28;20113;-62
2022/04/16 07:07:51;;;;;;;15.48;9.00;;;;;;;13.39;55.05;97645.84;10286248;28;20065;-62
2022/04/16 07:12:50;;;;;;;12.95;8.32;;;;;;;12.54;54.68;97482.91;10289247;28;20022;-62
2022/04/16 07:17:49;;;;;;;13.73;7.78;;;;;;;13.61;53.24;97609.94;10288840;28;20467;-62
2022/04/16 07:22:48;;;;;;;17.80;9.10;;;;;;;14.02;53.66;97621.47;10289450;28;20488;-63
2022/04/16 07:27:47;;;;;;;11.40;8.02;;;;;;;14.15;51.85;97607.31;10288815;28;20113;-62
2022/04/16 07:32:46;;;;;;;;;;;;;;;14.66;50.43;97635.94;10284777;28;20065;-63
2022/04/16 07:37:48;;;;;;;13.40;5.65;;;;;;;14.89;47.31;97634.66;10290005;28;19928;-63
2022/04/16 07:42:47;;;;;;;10.45;5.47;;;;;;;15.01;46.73;97585.66;10289659;28;20066;-62
2022/04/16 07:47:47;;;;;;;12.55;6.03;;;;;;;15.08;43.63;97531.47;10289561;28;20474;-62
2022/04/16 07:52:47;;;;;;;8.60;5.55;;;;;;;15.93;44.33;97619.31;10267749;28;20452;-61
2022/04/16 07:57:47;;;;;;;8.05;5.63;;;;;;;16.22;41.15;97621.19;10247336;28;20085;-61
2022/04/16 08:02:46;;;;;;;11.13;5.10;;;;;;;16.53;40.82;97622.97;10249712;28;20129;-61
2022/04/16 08:07:44;;;;;;;;;;;;;;;16.75;40.82;97614.53;10251837;28;20038;-61
2022/04/16 08:12:43;;;;;;;11.55;5.00;;;;;;;17.08;39.26;97613.59;10254336;28;20564;-61
2022/04/16 08:17:42;;;;;;;;;;;;;;;17.54;37.99;97600.84;10256322;28;20069;-61
2022/04/16 08:22:46;;;;;;;8.45;4.70;;;;;;;17.07;37.23;97466.81;10255528;28;19917;-61
2022/04/16 08:27:45;;;;;;;8.32;5.03;;;;;;;17.96;36.28;97603.91;10255252;28;20077;-61
2022/04/16 08:32:45;;;;;;;8.75;4.25;;;;;;;18.39;36.87;97591.94;10255072;28;20513;-62
2022/04/16 08:37:46;;;;;;;10.95;5.00;;;;;;;18.49;34.34;97584.56;10255498;28;20572;-61
2022/04/16 08:42:48;;;;;;;10.35;4.60;;;;;;;18.25;34.64;97582.81;10255401;28;20069;-61
2022/04/16 08:47:49;;;;;;;9.13;5.40;;;;;;;18.34;34.90;97583.34;10254635;28;20070;-61
2022/04/16 08:52:49;;;;;;;7.03;4.35;;;;;;;18.40;33.68;97577.00;10254542;28;20090;-61
2022/04/16 08:57:48;;;;;;;9.93;5.13;;;;;;;18.34;34.40;97580.72;10254359;28;20069;-61
2022/04/16 09:02:56;;;;;;;10.32;4.57;;;;;;;18.60;34.56;97569.28;10255130;28;20066;-61
2022/04/16 09:07:57;;;;;;;7.70;4.00;;;;;;;18.58;33.32;97512.44;10254184;28;20081;-61
2022/04/16 09:12:58;;;;;;;6.05;3.70;;;;;;;18.74;33.58;97537.28;10254978;28;20073;-61
2022/04/16 09:18:02;;;;;;;8.82;4.55;;;;;;;19.06;33.24;97555.38;10254332;28;20070;-61
2022/04/16 09:23:14;;;;;;;9.13;3.38;;;;;;;18.93;32.83;97545.31;10254622;28;20499;-61
2022/04/16 09:28:15;;;;;;;5.78;3.10;;;;;;;18.87;32.53;97548.16;10253956;28;20070;-61
2022/04/16 09:33:14;;;;;;;4.93;3.28;;;;;;;19.02;31.22;97555.50;10253871;28;20065;-61
2022/04/16 09:38:14;;;;;;;5.50;3.20;;;;;;;19.31;30.73;97532.44;10253876;28;20035;-62
2022/04/16 09:43:13;;;;;;;6.18;3.00;;;;;;;19.54;30.59;97530.69;10253398;28;20069;-62
2022/04/16 09:48:14;;;;;;;8.35;3.22;;;;;;;19.55;30.58;97503.44;10253239;28;20066;-62
2022/04/16 09:53:13;;;;;;;6.82;3.25;;;;;;;19.45;29.95;97506.44;10252168;28;20082;-63
2022/04/16 09:58:13;;;;;;;6.15;3.22;;;;;;;19.86;31.46;97540.78;10253001;28;20065;-63
2022/04/16 10:03:12;;;;;;;5.13;3.28;;;;;;;19.58;31.12;97485.78;10252703;28;20066;-63
2022/04/16 10:08:13;;;;;;;4.72;2.90;;;;;;;19.50;31.73;97482.56;10252988;28;20492;-63
2022/04/16 10:13:15;;;;;;;5.25;3.13;;;;;;;19.66;30.86;97543.38;10252842;28;20066;-63
2022/04/16 10:18:14;;;;;;;5.13;2.90;;;;;;;19.75;30.94;97526.34;10252312;28;20065;-63
2022/04/16 10:23:24;;;;;;;4.32;2.80;;;;;;;19.48;31.14;97499.34;10269182;28;20487;-62
2022/04/16 10:28:23;;;;;;;4.95;2.60;;;;;;;19.26;30.67;97480.94;10292403;28;20142;-62
2022/04/16 10:33:24;;;;;;;3.70;2.55;;;;;;;19.70;30.88;97521.28;10292475;28;20065;-62
2022/04/16 10:38:26;;;;;;;3.70;2.50;;;;;;;19.82;30.46;97518.13;10292103;28;20069;-62
2022/04/16 10:43:26;;;;;;;7.45;2.67;;;;;;;19.78;30.15;97513.88;10292382;28;20108;-61
2022/04/16 10:48:28;;;;;;;5.80;2.97;;;;;;;19.83;30.98;97511.06;10291620;28;20061;-61
2022/04/16 10:53:35;;;;;;;3.58;2.53;;;;;;;20.16;30.14;97514.03;10291701;28;20093;-61
2022/04/16 10:58:34;;;;;;;6.60;3.08;;;;;;;19.98;29.33;97501.69;10291238;28;20080;-61
2022/04/16 11:03:33;;;;;;;6.00;3.30;;;;;;;20.16;29.00;97476.28;10290974;28;20061;-61
2022/04/16 11:08:42;;;;;;;5.07;3.20;;;;;;;20.68;29.75;97503.84;10291157;28;20065;-60
2022/04/16 11:13:42;;;;;;;;;;;;;;;20.66;29.90;97495.16;10290945;28;20069;-61
2022/04/16 11:18:47;;;;;;;6.47;3.30;;;;;;;20.83;29.47;97494.38;10290567;28;20411;-61
2022/04/16 11:23:51;;;;;;;6.43;3.95;;;;;;;20.92;28.86;97490.44;10289947;28;20491;-61
2022/04/16 11:34:17;;;;;;;8.50;4.45;;;;;;;20.54;29.73;97437.72;10290599;28;20483;-61
2022/04/16 11:39:20;;;;;;;7.13;3.40;;;;;;;20.77;30.02;97470.06;10287957;28;20931;-61
2022/04/16 11:44:33;;;;;;;4.78;2.75;;;;;;;20.60;29.88;97455.88;10289755;28;20065;-61
2022/04/16 11:49:33;;;;;;;4.70;2.90;;;;;;;20.89;31.03;97458.91;10289623;28;20121;-61
2022/04/16 11:54:32;;;;;;;5.10;2.85;;;;;;;20.60;30.21;97455.03;10289630;28;20480;-61
2022/04/16 11:59:32;;;;;;;3.72;2.53;;;;;;;20.69;30.13;97460.72;10283998;28;20103;-61
2022/04/16 12:04:34;;;;;;;3.53;2.78;;;;;;;20.92;30.94;97456.16;10289094;28;20065;-61
2022/04/16 12:09:33;;;;;;;4.35;2.80;;;;;;;20.60;30.17;97458.50;10288880;28;20526;-61
2022/04/16 12:14:32;;;;;;;6.22;2.90;;;;;;;20.60;32.00;97458.50;10289089;28;20058;-61
2022/04/16 12:19:33;;;;;;;9.10;4.32;;;;;;;20.45;31.52;97457.44;10288940;28;20459;-61
2022/04/16 12:24:32;;;;;;;3.92;2.63;;;;;;;20.17;31.61;97446.41;10288752;28;20070;-61
2022/04/16 12:29:31;;;;;;;4.70;2.88;;;;;;;20.02;32.08;97429.47;10289192;28;20030;-61
2022/04/16 12:34:31;;;;;;;5.60;2.97;;;;;;;19.57;31.74;97335.81;10288752;28;20049;-61
2022/04/16 12:39:29;;;;;;;4.82;3.10;;;;;;;20.22;31.77;97444.41;10288556;28;20068;-61
2022/04/16 12:44:28;;;;;;;5.10;2.90;;;;;;;20.32;31.50;97444.84;10288791;28;20073;-61
2022/04/16 12:49:27;;;;;;;3.30;3.00;;;;;;;20.54;30.87;97435.09;10292283;28;20129;-61
2022/04/16 12:54:26;;;;;;;5.45;3.30;;;;;;;20.54;31.77;97428.94;10295303;28;20109;-61
2022/04/16 12:59:25;;;;;;;5.35;3.63;;;;;;;20.63;31.21;97417.97;10295165;28;20065;-61
2022/04/16 13:04:24;;;;;;;5.00;3.20;;;;;;;20.31;32.13;97401.00;10295458;28;20127;-61
2022/04/16 13:09:23;;;;;;;6.22;3.85;;;;;;;20.20;32.78;97431.31;10294808;28;20507;-61
2022/04/16 13:14:22;;;;;;;5.28;3.47;;;;;;;20.00;33.05;97368.13;10294694;28;20589;-61
2022/04/16 13:19:22;;;;;;;4.95;3.60;;;;;;;20.43;32.32;97418.91;10294950;28;20551;-61
2022/04/16 13:24:21;;;;;;;5.20;3.35;;;;;;;20.41;31.99;97423.38;10294963;28;20082;-61
2022/04/16 13:29:20;;;;;;;6.38;3.60;;;;;;;20.40;32.25;97414.63;10294297;28;20068;-61
2022/04/16 13:34:19;;;;;;;4.63;3.63;;;;;;;20.11;32.24;97365.00;10294283;28;20061;-61
2022/04/16 13:44:36;;;;;;;6.78;4.05;;;;;;;20.42;33.03;97406.63;10293812;28;20484;-61
2022/04/16 13:49:35;;;;;;;8.40;4.38;;;;;;;20.07;33.06;97411.69;10293363;28;20104;-61
2022/04/16 13:54:34;;;;;;;6.57;3.58;;;;;;;19.98;33.41;97404.22;10293177;28;20038;-61
2022/04/16 13:59:33;;;;;;;6.82;3.58;;;;;;;19.81;33.54;97400.56;10291402;28;20549;-61
2022/04/16 14:09:49;;;;;;;8.95;5.03;;;;;;;19.72;34.93;97424.66;10293022;28;20515;-61
2022/04/16 14:14:48;;;;;;;7.63;4.35;;;;;;;19.45;35.05;97422.22;10292627;28;20410;-61
2022/04/16 14:19:47;;;;;;;6.78;4.35;;;;;;;19.34;34.96;97411.28;10292364;28;20113;-62
2022/04/16 14:24:46;;;;;;;8.95;4.95;;;;;;;19.31;35.45;97411.44;10292179;28;20117;-62
2022/04/16 14:29:45;;;;;;;10.48;5.80;;;;;;;19.30;35.42;97393.94;10292131;28;20042;-63
2022/04/16 14:34:44;;;;;;;11.93;6.45;;;;;;;18.68;35.32;97313.19;10291945;28;20030;-63
2022/04/16 14:39:44;;;;;;;8.10;6.03;;;;;;;19.29;35.64;97410.63;10290584;28;20124;-62
2022/04/16 14:44:47;;;;;;;7.63;5.68;;;;;;;18.69;35.89;97370.13;10291666;28;20687;-62
2022/04/16 14:49:47;;;;;;;13.48;6.53;;;;;;;18.48;36.12;97375.31;10291204;28;20468;-62
2022/04/16 14:54:46;;;;;;;13.68;7.43;;;;;;;18.85;36.55;97400.13;10291590;28;20057;-60
2022/04/16 14:59:45;;;;;;;7.28;5.38;;;;;;;18.50;36.29;97380.47;10291185;28;20029;-61
2022/04/16 15:04:44;;;;;;;10.65;6.65;;;;;;;18.56;36.68;97399.50;10290835;28;20496;-62
2022/04/16 15:09:44;;;;;;;9.95;6.70;;;;;;;18.26;37.43;97379.66;10290732;28;20068;-61
2022/04/16 15:14:43;;;;;;;12.00;9.00;;;;;;;17.88;38.46;97353.06;10290363;28;20061;-62
2022/04/16 15:19:42;;;;;;;13.00;8.73;;;;;;;17.76;38.59;97377.94;10290640;28;20113;-62
2022/04/16 15:24:41;;;;;;;12.55;8.63;;;;;;;17.93;38.46;97393.97;10290368;28;20516;-61
2022/04/16 15:29:42;;;;;;;10.93;7.90;;;;;;;17.66;39.00;97405.41;10290353;28;20483;-61
2022/04/16 15:34:41;;;;;;;10.98;7.32;;;;;;;17.51;38.77;97405.03;10290233;28;20072;-61
2022/04/16 15:39:40;;;;;;;9.85;6.70;;;;;;;17.30;39.12;97397.91;10288926;28;20048;-61
2022/04/16 15:44:41;;;;;;;;;;;;;;;17.32;38.97;97410.06;10290601;28;20056;-61
2022/04/16 15:49:40;;;;;;;8.65;6.32;;;;;;;17.34;38.75;97410.88;10289903;28;20473;-61
2022/04/16 15:54:38;;;;;;;;;;;;;;;17.25;38.78;97426.91;10290255;28;20033;-61
2022/04/16 15:59:38;;;;;;;10.13;8.20;;;;;;;17.18;38.79;97430.63;10290275;28;19901;-61
2022/04/16 16:04:55;;;;;;;10.60;7.60;;;;;;;16.99;40.87;97429.53;10283043;28;20782;-61
2022/04/16 16:09:54;;;;;;;10.63;7.00;;;;;;;16.62;41.68;97452.44;10289543;28;20472;-61
2022/04/16 16:14:52;;;;;;;;;;;;;;;16.31;42.40;97457.75;10289589;28;20543;-61
2022/04/16 16:19:51;;;;;;;13.47;9.90;;;;;;;16.11;43.28;97433.88;10289101;28;20005;-61
2022/04/16 16:24:50;;;;;;;;;;;;;;;15.97;42.95;97463.91;10295382;28;20036;-62
2022/04/16 16:29:50;;;;;;;11.77;8.68;;;;;;;15.83;43.46;97466.03;10297285;28;20375;-62
2022/04/16 16:34:49;;;;;;;9.75;7.03;;;;;;;15.46;43.17;97427.75;10296582;28;20062;-62
2022/04/16 16:39:48;;;;;;;;;;;;;;;15.53;43.30;97493.81;10296851;28;20112;-62
2022/04/16 16:44:47;;;;;;;8.40;7.15;;;;;;;15.40;43.57;97498.50;10296174;28;19914;-63
2022/04/16 16:49:46;;;;;;;9.38;7.40;;;;;;;14.97;43.82;97455.09;10284295;28;20057;-62
2022/04/16 16:54:45;;;;;;;8.45;6.20;;;;;;;14.92;44.08;97478.72;10255263;28;20069;-62
2022/04/16 16:59:44;;;;;;;11.60;7.05;;;;;;;14.96;44.60;97530.00;10270135;28;20034;-62
2022/04/16 17:05:03;;;;;;;9.27;7.63;;;;;;;14.30;44.42;97428.69;10295104;28;20034;-62
2022/04/16 17:10:04;;;;;;;9.27;7.30;;;;;;;14.76;45.00;97526.97;10293928;28;20608;-62
2022/04/16 17:20:22;;;;;;;11.17;7.57;;;;;;;14.70;45.54;97547.94;10295009;28;20073;-61
2022/04/16 17:25:21;;;;;;;8.45;6.10;;;;;;;14.82;44.91;97551.19;10294337;28;20089;-62
2022/04/16 17:30:21;;;;;;;10.15;5.97;;;;;;;14.26;44.74;97505.31;10294428;28;20030;-63
2022/04/16 17:35:20;;;;;;;8.55;5.05;;;;;;;14.26;44.51;97503.56;10294375;28;20069;-63
2022/04/16 17:40:19;;;;;;;8.02;5.95;;;;;;;14.68;44.61;97570.63;10293345;28;20065;-60
2022/04/16 17:45:18;;;;;;;7.78;5.70;;;;;;;14.46;44.44;97573.66;10293648;28;20065;-61
2022/04/16 17:50:18;;;;;;;12.52;7.40;;;;;;;13.75;46.54;97528.00;10293914;28;20085;-63
2022/04/16 17:55:16;;;;;;;8.60;5.03;;;;;;;14.07;46.08;97598.75;10292790;28;20065;-63
2022/04/16 18:00:19;;;;;;;18.63;10.70;;;;;;;14.03;46.56;97607.50;10293159;28;20113;-61
2022/04/16 18:05:18;;;;;;;6.82;4.60;;;;;;;13.88;45.97;97619.94;10292630;28;20483;-60
2022/04/16 18:10:17;;;;;;;7.45;4.55;;;;;;;13.76;45.61;97589.69;10292353;28;20462;-60
2022/04/16 18:15:16;;;;;;;9.35;5.65;;;;;;;13.95;45.21;97629.38;10292682;28;20491;-60
2022/04/16 18:20:15;;;;;;;7.22;4.82;;;;;;;14.02;45.47;97631.91;10292914;28;20038;-60
2022/04/16 18:25:16;;;;;;;6.13;4.78;;;;;;;13.95;45.14;97637.19;10291779;28;20514;-60
2022/04/16 18:30:15;;;;;;;8.20;5.13;;;;;;;13.95;45.31;97649.38;10289988;28;20073;-60
2022/04/16 18:35:14;;;;;;;;;;;;;;;13.87;45.90;97649.53;10289567;28;20053;-63
2022/04/16 18:40:14;;;;;;;8.30;4.67;;;;;;;13.38;46.03;97576.38;10290104;28;19944;-60
2022/04/16 18:45:13;;;;;;;8.43;5.68;;;;;;;13.77;46.03;97640.09;10291873;28;20077;-60
2022/04/16 18:50:13;;;;;;;7.50;5.22;;;;;;;13.59;46.36;97627.38;10291216;28;20088;-60
2022/04/16 18:55:13;;;;;;;8.25;5.60;;;;;;;13.77;46.33;97646.19;10290656;28;20538;-60
2022/04/16 19:00:13;;;;;;;8.30;5.18;;;;;;;13.66;46.38;97639.44;10290738;28;20522;-62
2022/04/16 19:06:51;;;;;;;10.90;6.15;;;;;;;13.74;46.62;97661.88;10284912;28;20065;-62
2022/04/16 19:10:34;;;;;;;10.57;6.13;;;;;;;13.52;46.37;97626.56;10290048;28;20057;-62
2022/04/16 19:15:34;;;;;;;8.70;5.57;;;;;;;13.67;46.50;97662.00;10290606;28;20045;-62
2022/04/16 19:20:33;;;;;;;12.63;6.38;;;;;;;13.60;47.26;97655.16;10290261;28;20061;-62
2022/04/16 19:25:32;;;;;;;10.82;6.00;;;;;;;13.39;47.05;97640.66;10289719;28;20026;-63
2022/04/16 19:30:31;;;;;;;9.43;6.38;;;;;;;12.84;47.11;97532.88;10290217;28;20125;-61
2022/04/16 19:35:30;;;;;;;14.10;8.77;;;;;;;13.18;47.97;97605.31;10284409;28;20113;-63
2022/04/16 19:40:29;;;;;;;14.93;8.88;;;;;;;13.42;47.57;97646.69;10289310;28;20065;-61
2022/04/16 19:45:29;;;;;;;9.30;6.00;;;;;;;13.48;47.85;97651.81;10289800;28;20065;-62
2022/04/16 19:50:28;;;;;;;7.63;5.10;;;;;;;13.36;47.83;97636.34;10289668;28;20486;-62
2022/04/16 19:55:27;;;;;;;10.50;5.93;;;;;;;13.45;48.70;97636.22;10289911;28;20560;-61
2022/04/16 20:00:30;;;;;;;8.85;4.97;;;;;;;13.43;49.29;97660.59;10296967;28;20476;-63
2022/04/16 20:05:29;;;;;;;6.97;4.95;;;;;;;13.29;49.93;97650.34;10291924;28;20137;-62
2022/04/16 20:10:43;;;;;;;10.55;5.68;;;;;;;12.59;50.29;97547.94;10297076;28;20034;-61
2022/04/16 20:15:42;;;;;;;9.73;6.80;;;;;;;13.04;52.57;97644.59;10297128;28;20058;-61
2022/04/16 20:20:41;;;;;;;8.57;7.55;;;;;;;12.45;54.18;97558.50;10297260;28;20427;-61
2022/04/16 20:25:43;;;;;;;11.80;8.30;;;;;;;12.78;55.74;97652.72;10296386;28;20065;-61
2022/04/16 20:30:42;;;;;;;9.32;7.43;;;;;;;12.61;56.85;97648.56;10297072;28;20632;-61
2022/04/16 20:35:41;;;;;;;;;;;;;;;12.48;56.96;97657.38;10294944;28;20057;-61
2022/04/16 20:45:59;;;;;;;6.30;4.70;;;;;;;12.26;56.83;97659.28;10295735;28;20057;-60
2022/04/16 20:56:16;;;;;;;6.13;3.95;;;;;;;12.27;55.89;97656.72;10292673;28;20065;-61
2022/04/16 21:01:15;;;;;;;5.57;3.58;;;;;;;12.25;55.73;97649.75;10293189;28;20025;-61
2022/04/16 21:06:14;;;;;;;3.97;2.58;;;;;;;11.52;55.54;97524.72;10292879;28;20034;-61
2022/04/16 21:11:13;;;;;;;4.65;3.15;;;;;;;12.30;55.12;97645.41;10286207;28;20514;-61
2022/04/16 21:16:12;;;;;;;5.20;3.60;;;;;;;11.87;55.13;97580.75;10292848;28;20518;-61
2022/04/16 21:21:11;;;;;;;4.78;3.20;;;;;;;11.62;55.45;97541.97;10292496;28;20025;-61
2022/04/16 21:26:10;;;;;;;5.55;3.92;;;;;;;11.92;56.94;97596.31;10291644;28;20132;-60
2022/04/16 21:31:10;;;;;;;5.53;3.55;;;;;;;11.98;57.18;97612.72;10291882;28;20085;-61
2022/04/16 21:36:09;;;;;;;5.40;3.45;;;;;;;12.00;55.83;97620.50;10292151;28;20061;-61
2022/04/16 21:41:08;;;;;;;7.00;3.58;;;;;;;12.06;56.69;97636.03;10285443;28;20125;-61
2022/04/16 21:46:07;;;;;;;6.72;3.60;;;;;;;11.77;57.19;97612.91;10290812;28;20121;-61
2022/04/16 21:51:06;;;;;;;6.72;4.05;;;;;;;11.83;56.85;97629.31;10253930;28;1116481;-61
2022/04/16 21:56:07;;;;;;;5.97;4.10;;;;;;;11.54;56.84;97563.69;10294412;28;20665;-61
2022/04/16 22:01:46;;;;;;;4.57;3.28;;;;;;;11.84;56.36;97633.63;10293066;28;20693;-61
2022/04/16 22:06:45;;;;;;;7.13;3.60;;;;;;;11.93;56.48;97650.06;10292859;28;20053;-61
2022/04/16 22:11:45;;;;;;;6.57;3.90;;;;;;;11.17;56.35;97512.00;10285703;28;20151;-61
2022/04/16 22:16:44;;;;;;;5.03;3.22;;;;;;;11.97;54.82;97643.91;10291280;28;20076;-62
2022/04/16 22:21:43;;;;;;;5.78;3.03;;;;;;;12.05;55.41;97634.34;10288470;28;20190;-62
2022/04/16 22:26:42;;;;;;;4.90;3.13;;;;;;;11.43;55.38;97520.47;10289497;28;20062;-62
2022/04/16 22:31:41;;;;;;;7.30;4.10;;;;;;;11.75;55.52;97584.31;10290033;28;20033;-62
2022/04/16 22:41:58;;;;;;;5.82;3.90;;;;;;;11.94;56.43;97626.59;10285540;28;20077;-60
2022/04/16 22:46:57;;;;;;;6.13;3.75;;;;;;;11.67;55.69;97570.53;10290882;28;20434;-61
2022/04/16 22:51:56;;;;;;;6.78;3.35;;;;;;;11.43;55.68;97533.47;10291145;28;20100;-61
2022/04/16 22:56:55;;;;;;;6.47;3.75;;;;;;;11.86;55.22;97605.88;10290605;28;20403;-61
2022/04/16 23:01:54;;;;;;;4.45;3.05;;;;;;;11.89;55.41;97610.19;10290705;28;20030;-61
2022/04/16 23:06:53;;;;;;;6.53;3.33;;;;;;;11.88;54.19;97600.69;10290632;28;20025;-61
2022/04/16 23:11:52;;;;;;;5.97;3.53;;;;;;;11.85;55.31;97606.78;10284852;28;20137;-61
2022/04/16 23:16:51;;;;;;;6.10;3.13;;;;;;;11.70;55.34;97577.44;10291040;28;20111;-61
2022/04/16 23:21:51;;;;;;;6.65;4.00;;;;;;;11.77;55.44;97589.50;10290573;28;20395;-61
2022/04/16 23:26:50;;;;;;;4.65;2.90;;;;;;;11.76;55.31;97591.25;10289837;28;20782;-61
2022/04/16 23:31:49;;;;;;;5.57;3.97;;;;;;;11.80;55.57;97598.13;10291009;28;20385;-61
2022/04/16 23:36:47;;;;;;;3.78;2.70;;;;;;;11.77;55.81;97592.97;10290452;28;20113;-60
2022/04/16 23:41:46;;;;;;;6.07;3.50;;;;;;;11.73;56.24;97603.41;10290018;28;20065;-61
2022/04/16 23:46:54;;;;;;;5.40;3.00;;;;;;;11.73;55.54;97606.84;10290055;28;20125;-60
2022/04/16 23:51:53;;;;;;;7.32;3.90;;;;;;;11.78;55.29;97593.81;10289759;28;20084;-61
2022/04/16 23:56:52;;;;;;;5.95;3.50;;;;;;;11.68;55.07;97577.44;10290522;28;20025;-61
